createdAt,value
2022-08-04T00:02:28.948Z,0.00
2022-08-04T00:07:44.366Z,0.00
2022-08-04T00:12:31.460Z,0.00
2022-08-04T00:17:28.742Z,0.00
2022-08-04T00:22:28.708Z,0.00
2022-08-04T00:27:28.604Z,0.00
2022-08-04T00:32:34.144Z,0.00
2022-08-04T00:37:29.511Z,0.00
2022-08-04T00:42:28.416Z,0.00
2022-08-04T00:47:28.348Z,0.00
2022-08-04T00:52:32.013Z,0.00
2022-08-04T00:57:33.802Z,0.00
2022-08-04T01:02:29.166Z,0.00
2022-08-04T01:07:28.103Z,0.00
2022-08-04T01:12:28.042Z,0.00
2022-08-04T01:17:27.962Z,0.00
2022-08-04T01:22:27.897Z,0.00
2022-08-04T01:27:27.835Z,0.00
2022-08-04T01:32:27.763Z,0.00
2022-08-04T01:37:27.714Z,0.00
2022-08-04T01:42:32.210Z,0.00
2022-08-04T01:47:28.564Z,0.00
2022-08-04T01:52:27.495Z,0.00
2022-08-04T01:57:38.100Z,0.00
2022-08-04T02:02:28.465Z,0.00
2022-08-04T02:07:27.310Z,0.00
2022-08-04T02:12:27.563Z,0.00
2022-08-04T02:17:27.199Z,0.00
2022-08-04T02:22:27.119Z,0.00
2022-08-04T02:27:27.049Z,0.00
2022-08-04T02:32:27.041Z,0.00
2022-08-04T02:37:26.968Z,0.00
2022-08-04T02:42:26.841Z,0.00
2022-08-04T02:48:23.588Z,0.00
2022-08-04T02:52:27.722Z,0.00
2022-08-04T02:57:26.664Z,0.00
2022-08-04T03:02:26.595Z,0.00
2022-08-04T03:07:26.591Z,0.00
2022-08-04T03:12:26.451Z,0.00
2022-08-04T03:17:26.385Z,0.00
2022-08-04T03:22:26.355Z,5.62
2022-08-04T03:27:26.274Z,11.25
2022-08-04T03:32:26.179Z,16.88
2022-08-04T03:37:26.157Z,28.12
2022-08-04T03:42:26.047Z,45.00
2022-08-04T03:47:26.021Z,56.25
2022-08-04T03:52:25.950Z,78.75
2022-08-04T03:57:25.885Z,101.25
2022-08-04T04:02:25.814Z,123.75
2022-08-04T04:07:35.925Z,146.25
2022-08-04T04:12:26.870Z,168.75
2022-08-04T04:17:25.612Z,191.25
2022-08-04T04:22:25.553Z,219.38
2022-08-04T04:27:25.536Z,247.50
2022-08-04T04:32:25.415Z,281.25
2022-08-04T04:37:25.355Z,416.25
2022-08-04T04:42:25.294Z,1929.38
2022-08-04T04:48:07.420Z,2103.75
2022-08-04T04:52:26.136Z,2390.62
2022-08-04T04:57:53.951Z,2565.00
2022-08-04T05:02:26.018Z,2756.25
2022-08-04T05:07:24.969Z,2784.38
2022-08-04T05:13:05.141Z,3211.88
2022-08-04T05:17:25.860Z,3240.00
2022-08-04T05:22:24.780Z,3380.62
2022-08-04T05:27:24.730Z,3583.12
2022-08-04T05:32:24.655Z,3656.25
2022-08-04T05:37:24.624Z,3690.00
2022-08-04T05:42:25.544Z,3960.00
2022-08-04T05:47:24.577Z,4128.75
2022-08-04T05:52:24.430Z,4162.50
2022-08-04T05:57:24.381Z,4213.12
2022-08-04T06:02:24.414Z,4370.62
2022-08-04T06:07:24.273Z,4668.75
2022-08-04T06:12:24.205Z,4556.25
2022-08-04T06:19:56.436Z,3886.88
2022-08-04T06:22:25.335Z,4168.12
2022-08-04T06:27:24.062Z,4449.38
2022-08-04T06:32:29.670Z,3690.00
2022-08-04T06:37:42.501Z,4213.12
2022-08-04T06:42:24.861Z,4432.50
2022-08-04T06:47:23.909Z,4781.25
2022-08-04T06:52:23.739Z,4471.88
2022-08-04T06:57:23.805Z,4815.00
2022-08-04T07:02:23.676Z,4201.88
2022-08-04T07:07:34.081Z,4854.38
2022-08-04T07:12:24.549Z,5113.12
2022-08-04T07:17:23.712Z,4550.62
2022-08-04T07:22:25.729Z,4826.25
2022-08-04T07:27:48.189Z,5225.62
2022-08-04T07:32:24.323Z,4590.00
2022-08-04T07:37:23.378Z,4995.00
2022-08-04T07:42:24.213Z,4758.75
2022-08-04T07:47:25.501Z,4235.62
2022-08-04T07:52:23.113Z,4106.25
2022-08-04T07:57:41.498Z,4005.00
2022-08-04T08:02:24.010Z,4342.50
2022-08-04T08:07:23.202Z,4758.75
2022-08-04T08:12:38.442Z,3127.50
2022-08-04T08:17:24.025Z,2148.75
2022-08-04T08:22:22.739Z,2160.00
2022-08-04T08:27:23.047Z,2255.62
2022-08-04T08:32:22.936Z,2250.00
2022-08-04T08:37:22.926Z,2205.00
2022-08-04T08:42:22.546Z,2295.00
2022-08-04T08:47:22.876Z,2345.62
2022-08-04T08:52:55.051Z,2250.00
2022-08-04T08:57:23.668Z,2070.00
2022-08-04T09:02:22.308Z,2131.88
2022-08-04T09:07:22.459Z,1732.50
2022-08-04T09:12:25.871Z,894.38
2022-08-04T09:17:22.464Z,877.50
2022-08-04T09:22:22.141Z,838.12
2022-08-04T09:27:22.182Z,815.62
2022-08-04T09:32:21.935Z,781.88
2022-08-04T09:37:22.301Z,748.12
2022-08-04T09:42:22.606Z,697.50
2022-08-04T09:47:21.780Z,748.12
2022-08-04T09:52:21.873Z,731.25
2022-08-04T09:57:21.669Z,725.62
2022-08-04T10:02:21.748Z,725.62
2022-08-04T10:07:21.688Z,697.50
2022-08-04T10:12:21.498Z,748.12
2022-08-04T10:17:21.632Z,748.12
2022-08-04T10:22:28.797Z,753.75
2022-08-04T10:27:22.473Z,697.50
2022-08-04T10:32:21.210Z,776.25
2022-08-04T10:37:21.353Z,759.38
2022-08-04T10:42:21.253Z,787.50
2022-08-04T10:47:21.237Z,748.12
2022-08-04T10:52:20.968Z,663.75
2022-08-04T10:57:21.117Z,652.50
2022-08-04T11:02:20.876Z,641.25
2022-08-04T11:07:21.142Z,641.25
2022-08-04T11:12:20.729Z,669.38
2022-08-04T11:17:20.917Z,630.00
2022-08-04T11:22:20.635Z,646.88
2022-08-04T11:27:20.852Z,646.88
2022-08-04T11:32:20.523Z,466.88
2022-08-04T11:37:20.467Z,630.00
2022-08-04T11:42:20.376Z,585.00
2022-08-04T11:47:20.595Z,573.75
2022-08-04T11:52:20.260Z,489.38
2022-08-04T11:57:20.355Z,562.50
2022-08-04T12:02:21.267Z,680.62
2022-08-04T12:07:40.457Z,691.88
2022-08-04T12:12:21.003Z,663.75
2022-08-04T12:17:20.162Z,618.75
2022-08-04T12:22:21.316Z,585.00
2022-08-04T12:27:20.935Z,528.75
2022-08-04T12:32:20.769Z,388.12
2022-08-04T12:37:20.464Z,376.88
2022-08-04T12:42:21.574Z,540.00
2022-08-04T12:47:36.199Z,517.50
2022-08-04T12:52:20.764Z,511.88
2022-08-04T12:57:19.698Z,523.12
2022-08-04T13:02:19.485Z,511.88
2022-08-04T13:07:19.469Z,478.12
2022-08-04T13:12:19.290Z,483.75
2022-08-04T13:17:19.471Z,444.38
2022-08-04T13:22:19.138Z,433.12
2022-08-04T13:27:20.389Z,399.38
2022-08-04T13:32:19.043Z,405.00
2022-08-04T13:37:20.885Z,382.50
2022-08-04T13:42:18.894Z,410.62
2022-08-04T13:47:18.830Z,427.50
2022-08-04T13:52:18.768Z,438.75
2022-08-04T13:57:19.937Z,427.50
2022-08-04T14:02:18.629Z,410.62
2022-08-04T14:07:20.994Z,388.12
2022-08-04T14:12:45.399Z,388.12
2022-08-04T14:17:19.803Z,376.88
2022-08-04T14:22:18.384Z,376.88
2022-08-04T14:27:18.334Z,371.25
2022-08-04T14:32:24.230Z,371.25
2022-08-04T14:37:20.369Z,382.50
2022-08-04T14:42:18.148Z,388.12
2022-08-04T14:47:18.126Z,399.38
2022-08-04T14:52:18.058Z,371.25
2022-08-04T14:57:17.994Z,382.50
2022-08-04T15:02:18.162Z,388.12
2022-08-04T15:07:17.865Z,354.38
2022-08-04T15:12:17.815Z,376.88
2022-08-04T15:17:29.937Z,365.62
2022-08-04T15:22:18.735Z,348.75
2022-08-04T15:27:17.608Z,326.25
2022-08-04T15:32:17.550Z,337.50
2022-08-04T15:37:17.491Z,331.88
2022-08-04T15:42:21.257Z,303.75
2022-08-04T15:47:17.376Z,258.75
2022-08-04T15:52:18.294Z,253.12
2022-08-04T15:57:17.245Z,236.25
2022-08-04T16:02:17.256Z,286.88
2022-08-04T16:07:17.291Z,275.62
2022-08-04T16:12:32.022Z,247.50
2022-08-04T16:17:18.034Z,264.38
2022-08-04T16:22:16.979Z,253.12
2022-08-04T16:27:16.893Z,208.12
2022-08-04T16:32:16.856Z,247.50
2022-08-04T16:37:16.745Z,230.62
2022-08-04T16:42:16.747Z,196.88
2022-08-04T16:47:22.436Z,219.38
2022-08-04T16:52:16.589Z,208.12
2022-08-04T16:57:16.562Z,202.50
2022-08-04T17:02:16.497Z,196.88
2022-08-04T17:07:16.395Z,191.25
2022-08-04T17:12:16.304Z,185.62
2022-08-04T17:17:16.274Z,180.00
2022-08-04T17:22:16.225Z,180.00
2022-08-04T17:28:10.526Z,168.75
2022-08-04T17:32:17.210Z,163.12
2022-08-04T17:42:16.961Z,140.62
2022-08-04T17:47:15.892Z,129.38
2022-08-04T17:52:32.383Z,123.75
2022-08-04T17:57:19.385Z,112.50
2022-08-04T18:02:15.871Z,101.25
2022-08-04T18:08:38.951Z,90.00
2022-08-04T18:12:16.586Z,78.75
2022-08-04T18:22:16.698Z,50.62
2022-08-04T18:27:16.429Z,39.38
2022-08-04T18:32:15.469Z,33.75
2022-08-04T18:38:02.915Z,22.50
2022-08-04T18:42:16.214Z,16.88
2022-08-04T18:47:22.571Z,11.25
2022-08-04T18:52:16.120Z,5.62
2022-08-04T18:57:32.838Z,0.00
2022-08-04T19:02:17.489Z,0.00
2022-08-04T19:07:28.699Z,0.00
2022-08-04T19:12:15.848Z,0.00
2022-08-04T19:17:15.811Z,0.00
2022-08-04T19:27:15.599Z,0.00
2022-08-04T19:32:15.986Z,0.00
2022-08-04T19:37:20.394Z,0.00
2022-08-04T19:42:15.404Z,0.00
2022-08-04T19:48:21.473Z,0.00
2022-08-04T19:52:15.266Z,0.00
2022-08-04T19:57:15.197Z,0.00
2022-08-04T20:02:14.391Z,0.00
2022-08-04T20:07:15.454Z,0.00
2022-08-04T20:12:14.010Z,0.00
2022-08-04T20:17:13.992Z,0.00
2022-08-04T20:22:51.890Z,0.00
2022-08-04T20:27:38.552Z,0.00
2022-08-04T20:32:15.212Z,0.00
2022-08-04T20:37:15.459Z,0.00
2022-08-04T20:42:13.747Z,0.00
2022-08-04T20:47:17.557Z,0.00
2022-08-04T20:52:19.909Z,0.00
2022-08-04T20:57:14.439Z,0.00
2022-08-04T21:02:16.510Z,0.00
2022-08-04T21:07:16.882Z,0.00
2022-08-04T21:12:27.982Z,0.00
2022-08-04T21:17:16.921Z,0.00
2022-08-04T21:22:13.148Z,0.00
2022-08-04T21:27:14.201Z,0.00
2022-08-04T21:32:12.996Z,0.00
2022-08-04T21:37:12.934Z,0.00
2022-08-04T21:42:29.236Z,0.00
2022-08-04T21:47:37.360Z,0.00
2022-08-04T21:52:13.730Z,0.00
2022-08-04T21:57:12.661Z,0.00
2022-08-04T22:02:12.746Z,0.00
2022-08-04T22:07:12.533Z,0.00
2022-08-04T22:12:12.623Z,0.00
2022-08-04T22:17:13.383Z,0.00
2022-08-04T22:22:13.583Z,0.00
2022-08-04T22:27:13.273Z,0.00
2022-08-04T22:32:12.207Z,0.00
2022-08-04T22:37:12.339Z,0.00
2022-08-04T22:42:13.402Z,0.00
2022-08-04T22:47:23.533Z,0.00
2022-08-04T22:52:26.186Z,0.00
2022-08-04T22:57:12.882Z,0.00
2022-08-04T23:02:11.830Z,0.00
2022-08-04T23:07:11.781Z,0.00
2022-08-04T23:12:27.819Z,0.00
2022-08-04T23:17:12.655Z,0.00
2022-08-04T23:22:16.041Z,0.00
2022-08-04T23:27:12.111Z,0.00
2022-08-04T23:32:11.433Z,0.00
2022-08-04T23:37:11.387Z,0.00
2022-08-04T23:42:15.079Z,0.00
2022-08-04T23:48:14.502Z,0.00
2022-08-04T23:52:23.135Z,0.00
2022-08-04T23:57:17.335Z,0.00
